Time;durP1;ratioP1;P1;durP2;ratioP2;P2;SDS_P1;SDS_P2;PMS_P1;PMS_P2;Temp;Humidity;BMP_temperature;BMP_pressure;BME280_temperature;BME280_humidity;BME280_pressure;Samples;Min_cycle;Max_cycle;Signal;HPM_P1;HPM_P2
2021/12/05 00:22:01;;;;;;;10.80;9.33;;;4.10;99.90;;;5.00;100.00;98322.66;5088874;28;20677;-66
2021/12/05 00:24:36;;;;;;;10.90;8.90;;;4.20;99.90;;;5.13;100.00;98334.97;5088874;28;20698;-64
2021/12/05 00:27:15;;;;;;;11.27;9.57;;;4.20;99.90;;;5.03;100.00;98326.72;5089388;28;20695;-65
2021/12/05 00:29:50;;;;;;;12.73;9.57;;;4.20;99.90;;;5.07;100.00;98323.38;5089370;28;20553;-62
2021/12/05 00:32:26;;;;;;;10.93;9.10;;;4.20;99.90;;;5.12;100.00;98328.00;5089188;28;20217;-64
2021/12/05 00:41:05;;;;;;;9.03;8.13;;;4.20;99.90;;;4.88;100.00;98330.66;5049271;28;20290;-64
2021/12/05 00:46:30;;;;;;;10.83;7.97;;;4.10;99.90;;;5.06;100.00;98310.25;5065772;28;20294;-63
2021/12/05 00:49:18;;;;;;;7.33;6.63;;;4.20;99.90;;;4.84;100.00;98315.31;5101913;28;20186;-66
2021/12/05 01:00:27;;;;;;;9.70;8.80;;;4.10;99.90;;;4.95;100.00;98373.22;5095289;28;20225;-65
2021/12/05 01:03:20;;;;;;;9.60;8.60;;;4.10;99.90;;;4.90;100.00;98387.22;5095143;28;20194;-65
2021/12/05 01:14:27;;;;;;;9.17;8.27;;;4.20;99.90;;;5.07;100.00;98408.75;5077314;28;20729;-63
2021/12/05 01:16:55;;;;;;;9.70;8.77;;;4.30;99.90;;;5.25;100.00;98419.34;5074844;28;20198;-68
2021/12/05 01:19:25;;;;;;;10.07;9.07;;;4.30;99.90;;;5.35;100.00;98426.78;5074622;28;20298;-66
2021/12/05 01:22:01;;;;;;;9.43;8.53;;;4.40;99.90;;;5.25;100.00;98438.03;5074680;28;20236;-65
2021/12/05 01:24:41;;;;;;;9.83;8.93;;;4.40;99.90;;;5.26;100.00;98445.00;5074286;28;20282;-64
2021/12/05 01:27:14;;;;;;;10.37;9.27;;;4.40;99.90;;;5.10;100.00;98442.16;5074967;28;20187;-66
2021/12/05 01:29:49;;;;;;;10.60;9.57;;;4.40;99.90;;;5.03;100.00;98449.44;5074750;28;20561;-66
2021/12/05 01:32:27;;;;;;;10.23;9.23;;;4.30;99.90;;;5.10;100.00;98442.16;5074655;28;20184;-65
2021/12/05 01:35:06;;;;;;;10.57;9.47;;;4.40;99.90;;;5.28;100.00;98447.44;5074723;28;20278;-64
2021/12/05 01:37:53;;;;;;;9.20;8.30;;;4.40;99.90;;;5.11;100.00;98446.47;5074342;28;20218;-64
2021/12/05 01:40:42;;;;;;;9.47;8.57;;;4.40;99.90;;;5.23;100.00;98444.63;5073894;28;20228;-65
2021/12/05 01:49:07;;;;;;;8.20;7.40;;;4.40;99.90;;;5.28;100.00;98458.09;5040954;28;20293;-66
2021/12/05 01:54:41;;;;;;;9.63;8.63;;;4.50;99.90;;;5.33;100.00;98461.72;5093818;28;20607;-64
2021/12/05 02:03:08;;;;;;;12.10;10.77;;;4.50;99.90;;;5.54;100.00;98474.56;5031192;28;20211;-64
2021/12/05 02:08:52;;;;;;;11.77;10.67;;;4.60;99.90;;;5.43;100.00;98474.56;5036189;28;20247;-65
2021/12/05 02:33:56;;;;;;;10.17;8.80;;;4.70;99.90;;;5.47;100.00;98505.06;5090740;28;20202;-64
2021/12/05 02:41:56;;;;;;;10.57;9.07;;;4.60;99.90;;;5.40;100.00;98518.53;5092405;28;20238;-63
2021/12/05 02:44:25;;;;;;;11.83;10.63;;;4.60;99.90;;;5.50;100.00;98528.66;5093373;28;20190;-63
2021/12/05 02:47:02;;;;;;;8.83;7.87;;;4.60;99.90;;;5.44;100.00;98541.06;5093088;28;20260;-66
2021/12/05 02:49:33;;;;;;;10.47;8.80;;;4.60;99.90;;;5.54;100.00;98545.84;5093019;28;20218;-64
2021/12/05 02:52:06;;;;;;;9.63;8.63;;;4.70;99.90;;;5.55;100.00;98542.94;5093326;28;20574;-63
2021/12/05 02:54:42;;;;;;;11.00;8.10;;;4.70;99.90;;;5.52;100.00;98538.06;5092992;28;20240;-64
2021/12/05 02:57:10;;;;;;;10.40;8.63;;;4.70;99.90;;;5.50;100.00;98528.66;5093313;28;20275;-64
2021/12/05 02:59:47;;;;;;;8.60;7.30;;;4.70;99.90;;;5.44;100.00;98537.56;5092920;28;20746;-64
2021/12/05 03:02:18;;;;;;;8.03;7.20;;;4.70;99.90;;;5.58;100.00;98539.81;5092906;28;20300;-64
2021/12/05 03:04:51;;;;;;;10.80;8.00;;;4.70;99.90;;;5.52;100.00;98538.06;5093141;28;20187;-64
2021/12/05 03:07:26;;;;;;;8.47;7.07;;;4.70;99.90;;;5.71;100.00;98541.50;5083503;28;20202;-65
2021/12/05 03:09:55;;;;;;;10.70;6.73;;;4.80;99.90;;;5.80;100.00;98542.81;5072183;28;20188;-64
2021/12/05 03:12:24;;;;;;;10.60;7.90;;;4.80;99.90;;;5.68;100.00;98545.41;5072853;28;20195;-63
2021/12/05 03:15:04;;;;;;;8.70;7.37;;;4.80;99.90;;;5.74;100.00;98557.06;5072329;28;20200;-64
2021/12/05 03:17:32;;;;;;;10.20;8.23;;;4.80;99.90;;;5.82;100.00;98557.56;5072924;28;20187;-64
2021/12/05 03:20:00;;;;;;;9.80;8.07;;;4.80;99.90;;;5.82;100.00;98562.94;5072431;28;20232;-64
2021/12/05 03:22:28;;;;;;;9.27;7.90;;;4.90;99.90;;;5.82;100.00;98573.59;5072302;28;20258;-64
2021/12/05 03:24:58;;;;;;;10.53;7.70;;;4.90;99.90;;;5.69;100.00;98573.78;5072065;28;20201;-65
2021/12/05 03:27:26;;;;;;;11.63;8.17;;;4.90;99.90;;;5.67;100.00;98578.53;5071617;28;20285;-63
2021/12/05 03:29:54;;;;;;;11.93;8.00;;;4.80;99.90;;;5.72;100.00;98572.50;5072280;28;20213;-65
2021/12/05 03:32:24;;;;;;;8.50;7.60;;;4.90;99.90;;;5.69;100.00;98576.44;5072450;28;20199;-64
2021/12/05 03:34:52;;;;;;;10.80;8.50;;;4.90;99.90;;;5.65;100.00;98574.47;5072130;28;20204;-63
2021/12/05 03:37:20;;;;;;;7.43;6.73;;;4.80;99.90;;;5.68;100.00;98569.47;5072472;28;20299;-63
2021/12/05 03:39:48;;;;;;;6.77;6.07;;;4.80;99.90;;;5.77;100.00;98575.28;5071930;28;20231;-64
2021/12/05 03:42:17;;;;;;;6.87;5.47;;;4.90;99.90;;;5.64;100.00;98575.50;5071778;28;20748;-63
2021/12/05 03:44:45;;;;;;;5.40;4.67;;;4.90;99.90;;;5.69;100.00;98581.78;5071888;28;20295;-63
2021/12/05 03:47:14;;;;;;;7.13;4.50;;;4.90;99.90;;;5.75;100.00;98582.75;5072089;28;20659;-63
2021/12/05 03:49:42;;;;;;;6.13;3.80;;;4.90;99.90;;;5.81;100.00;98587.16;5091283;28;20230;-64
2021/12/05 03:52:16;;;;;;;4.73;3.63;;;4.90;99.90;;;5.79;100.00;98594.59;5092411;28;20248;-64
2021/12/05 03:54:47;;;;;;;5.53;3.20;;;4.90;99.90;;;5.73;100.00;98588.28;5091840;28;20226;-64
2021/12/05 03:57:17;;;;;;;4.87;3.43;;;4.90;99.90;;;5.91;100.00;98590.97;5092637;28;20191;-64
2021/12/05 03:59:45;;;;;;;5.93;3.50;;;4.90;99.90;;;5.97;100.00;98586.56;5092143;28;20198;-63
2021/12/05 04:02:13;;;;;;;8.47;4.10;;;5.00;99.90;;;5.85;100.00;98583.03;5092309;28;20219;-64
2021/12/05 04:04:42;;;;;;;7.47;4.27;;;5.00;99.90;;;5.75;100.00;98585.41;5073135;28;20677;-63
2021/12/05 04:07:13;;;;;;;5.50;4.63;;;5.00;99.90;;;5.70;100.00;98582.63;5072230;28;20320;-64
2021/12/05 04:09:41;;;;;;;7.63;5.07;;;4.90;99.90;;;5.80;100.00;98588.22;5071870;28;20599;-64
2021/12/05 04:12:10;;;;;;;6.17;4.83;;;4.90;99.90;;;5.80;100.00;98580.22;5071853;28;20686;-64
2021/12/05 04:14:45;;;;;;;6.67;5.40;;;4.90;99.90;;;5.92;100.00;98589.91;5072064;28;20663;-63
2021/12/05 04:17:17;;;;;;;9.90;6.13;;;4.90;99.90;;;5.94;100.00;98584.31;5072089;28;20184;-63
2021/12/05 04:19:45;;;;;;;9.07;5.10;;;5.00;99.90;;;5.89;100.00;98584.19;5072255;28;20238;-64
2021/12/05 04:22:14;;;;;;;8.83;5.43;;;5.00;99.90;;;5.87;100.00;98597.78;5072062;28;20289;-63
2021/12/05 04:24:44;;;;;;;8.70;5.10;;;5.00;99.90;;;5.84;100.00;98600.09;5071851;28;20623;-64
2021/12/05 04:27:13;;;;;;;7.47;5.00;;;5.00;99.90;;;5.77;100.00;98605.50;5072999;28;20188;-63
2021/12/05 04:29:42;;;;;;;8.43;5.37;;;4.90;99.90;;;5.71;100.00;98601.09;5075825;28;20245;-65
2021/12/05 04:32:11;;;;;;;7.00;5.73;;;4.90;99.90;;;5.75;100.00;98596.09;5075387;28;20253;-64
2021/12/05 04:34:39;;;;;;;8.47;5.53;;;4.90;99.90;;;5.65;100.00;98588.63;5075712;28;20209;-65
2021/12/05 04:37:08;;;;;;;8.37;5.57;;;4.80;99.90;;;5.48;100.00;98603.63;5075579;28;20247;-63
2021/12/05 04:39:37;;;;;;;8.60;6.30;;;4.80;99.90;;;5.32;100.00;98600.78;5075251;28;20209;-61
2021/12/05 04:42:06;;;;;;;11.03;5.90;;;4.70;99.90;;;5.54;100.00;98604.59;5074953;28;20292;-63
2021/12/05 04:44:34;;;;;;;10.90;6.73;;;4.70;99.90;;;5.51;100.00;98599.72;5075625;28;20295;-64
2021/12/05 04:47:05;;;;;;;8.03;5.90;;;4.70;99.90;;;5.48;100.00;98598.28;5075327;28;20200;-64
2021/12/05 04:49:34;;;;;;;12.50;6.40;;;4.60;99.90;;;5.34;100.00;98598.69;5093423;28;20198;-64
2021/12/05 04:52:02;;;;;;;9.43;5.87;;;4.60;99.90;;;5.21;100.00;98597.00;5095560;28;20301;-64
2021/12/05 04:54:30;;;;;;;8.30;5.87;;;4.60;99.90;;;5.31;100.00;98596.50;5095440;28;20658;-63
2021/12/05 04:56:58;;;;;;;8.90;6.30;;;4.50;99.90;;;5.34;100.00;98599.53;5095220;28;20238;-64
2021/12/05 04:59:28;;;;;;;7.60;5.43;;;4.50;99.90;;;5.36;100.00;98604.63;5088982;28;20306;-63
2021/12/05 05:01:58;;;;;;;8.83;6.40;;;4.60;99.90;;;5.36;100.00;98609.97;5075212;28;20190;-64
2021/12/05 05:04:30;;;;;;;6.60;5.90;;;4.60;99.90;;;5.37;100.00;98607.09;5075098;28;20226;-64
2021/12/05 05:07:03;;;;;;;7.57;5.53;;;4.60;99.90;;;5.37;100.00;98609.75;5074855;28;20215;-64
2021/12/05 05:09:32;;;;;;;8.87;5.73;;;4.50;99.90;;;5.29;100.00;98610.06;5074793;28;20219;-64
2021/12/05 05:12:00;;;;;;;8.60;6.20;;;4.50;99.90;;;5.29;100.00;98611.91;5074896;28;20242;-63
2021/12/05 05:14:28;;;;;;;11.47;5.53;;;4.50;99.90;;;5.10;100.00;98612.94;5074633;28;20284;-63
2021/12/05 05:16:56;;;;;;;8.70;5.47;;;4.40;99.90;;;5.07;100.00;98616.06;5074762;28;20212;-64
2021/12/05 05:19:29;;;;;;;12.37;6.40;;;4.40;99.90;;;4.98;100.00;98618.22;5074891;28;20203;-63
2021/12/05 05:22:05;;;;;;;11.40;5.10;;;4.30;99.90;;;5.16;100.00;98617.41;5074716;28;20238;-63
2021/12/05 05:27:50;;;;;;;9.43;4.87;;;4.30;99.90;;;5.05;100.00;98639.47;5049653;28;20210;-64
2021/12/05 05:30:34;;;;;;;9.23;5.17;;;4.30;99.90;;;5.08;100.00;98633.69;5074655;28;20218;-63
2021/12/05 05:47:08;;;;;;;7.47;5.10;;;4.20;99.90;;;5.12;100.00;98656.25;5074231;28;20590;-63
2021/12/05 05:49:51;;;;;;;8.17;4.93;;;4.20;99.90;;;5.11;100.00;98655.41;5092652;28;20190;-63
2021/12/05 05:52:20;;;;;;;6.47;4.30;;;4.30;99.90;;;4.92;100.00;98662.59;5094326;28;20609;-64
2021/12/05 05:54:52;;;;;;;7.87;5.03;;;4.30;99.90;;;4.83;100.00;98671.09;5094104;28;20228;-64
2021/12/05 05:57:25;;;;;;;9.40;4.97;;;4.20;99.90;;;4.76;100.00;98668.50;5074020;28;20207;-63
2021/12/05 06:00:01;;;;;;;9.77;6.07;;;4.10;99.90;;;4.75;100.00;98674.84;5073910;28;20638;-63
2021/12/05 06:05:17;;;;;;;13.67;5.83;;;4.10;99.90;;;4.92;100.00;98667.13;5074026;28;20211;-63
2021/12/05 06:07:46;;;;;;;8.07;5.53;;;4.10;99.90;;;4.80;100.00;98675.00;5073925;28;20300;-63
2021/12/05 06:10:20;;;;;;;7.87;4.90;;;4.10;99.90;;;4.65;100.00;98679.88;5073531;28;20370;-63
2021/12/05 06:12:49;;;;;;;9.77;4.70;;;4.00;99.90;;;4.67;100.00;98682.31;5073416;28;20194;-64
2021/12/05 06:15:21;;;;;;;8.80;4.30;;;4.00;99.90;;;4.65;100.00;98687.88;5073819;28;20207;-63
2021/12/05 06:17:49;;;;;;;8.90;5.23;;;4.00;99.90;;;4.61;100.00;98693.88;5073641;28;20210;-64
2021/12/05 06:20:20;;;;;;;8.27;4.70;;;3.90;99.90;;;4.60;100.00;98701.03;5073628;28;20310;-64
2021/12/05 06:22:49;;;;;;;8.20;4.47;;;3.90;99.90;;;4.53;100.00;98700.28;5073475;28;20221;-63
2021/12/05 06:25:23;;;;;;;5.57;4.20;;;3.90;99.90;;;4.46;100.00;98704.03;5073221;28;20269;-64
2021/12/05 06:27:54;;;;;;;6.17;4.23;;;3.90;99.90;;;4.50;100.00;98713.25;5073379;28;20274;-64
2021/12/05 06:30:32;;;;;;;8.17;4.80;;;3.80;99.90;;;4.55;100.00;98711.53;5073491;28;20285;-63
2021/12/05 06:38:57;;;;;;;6.57;4.90;;;3.80;99.90;;;4.38;100.00;98728.31;5072931;28;20224;-65
2021/12/05 06:41:46;;;;;;;7.53;5.00;;;3.80;99.90;;;4.42;100.00;98732.97;5072607;28;20232;-63
2021/12/05 06:47:01;;;;;;;6.63;3.70;;;3.80;99.90;;;4.53;100.00;98718.94;5073175;28;20282;-66
2021/12/05 06:49:29;;;;;;;5.43;4.00;;;3.90;99.90;;;4.63;100.00;98721.94;5089945;28;20300;-64
2021/12/05 06:51:57;;;;;;;9.77;5.03;;;3.90;99.90;;;4.67;100.00;98732.97;5086400;28;20721;-64
2021/12/05 06:54:25;;;;;;;8.93;5.37;;;3.90;99.90;;;4.57;100.00;98740.66;5072451;28;20319;-64
2021/12/05 06:56:54;;;;;;;9.00;4.27;;;3.90;99.90;;;4.47;100.00;98740.31;5073045;28;20256;-63
2021/12/05 06:59:22;;;;;;;6.07;3.90;;;3.90;99.90;;;4.41;100.00;98750.00;5072728;28;20266;-64
2021/12/05 07:01:51;;;;;;;9.37;4.10;;;3.80;99.90;;;4.54;100.00;98757.91;5072590;28;20637;-64
2021/12/05 07:04:41;;;;;;;4.67;4.00;;;3.80;99.90;;;4.54;100.00;98762.41;5072376;28;20423;-63
2021/12/05 07:07:17;;;;;;;5.23;3.40;;;3.90;99.90;;;4.61;100.00;98764.03;5072946;28;20278;-63
2021/12/05 07:09:47;;;;;;;5.63;3.50;;;3.90;99.90;;;4.68;100.00;98778.13;5072250;28;20607;-64
2021/12/05 07:15:15;;;;;;;7.63;5.00;;;3.90;99.90;;;4.71;100.00;98785.69;5051852;28;20253;-63
2021/12/05 07:20:47;;;;;;;7.70;5.40;;;4.00;99.90;;;5.16;100.00;98790.88;5072485;28;20192;-63
2021/12/05 07:23:28;;;;;;;9.10;5.60;;;4.20;99.90;;;4.96;100.00;98791.88;5071911;28;20698;-64
2021/12/05 07:26:09;;;;;;;7.03;3.20;;;4.10;99.90;;;4.97;100.00;98790.81;5072605;28;20188;-62
2021/12/05 07:42:35;;;;;;;8.07;4.07;;;4.20;99.90;;;4.93;100.00;98815.50;5072566;28;20307;-63
2021/12/05 07:45:06;;;;;;;5.77;4.17;;;4.10;99.90;;;4.86;100.00;98830.72;5072334;28;20298;-64
2021/12/05 07:47:37;;;;;;;4.80;3.60;;;4.10;99.90;;;4.93;100.00;98829.66;5072765;28;20196;-64
2021/12/05 07:50:09;;;;;;;5.03;3.10;;;4.20;99.90;;;4.90;100.00;98831.94;5091413;28;20278;-64
2021/12/05 07:52:41;;;;;;;4.63;3.10;;;4.20;99.90;;;4.96;100.00;98837.22;5092573;28;20355;-64
2021/12/05 07:55:19;;;;;;;5.30;3.47;;;4.20;99.90;;;5.13;100.00;98850.00;5092218;28;20182;-64
2021/12/05 07:58:04;;;;;;;5.47;3.30;;;4.30;99.90;;;5.40;100.00;98838.09;5092343;28;20186;-63
2021/12/05 08:00:42;;;;;;;6.53;3.97;;;4.40;99.90;;;5.26;100.00;98842.72;5092333;28;20265;-63
2021/12/05 08:14:36;;;;;;;5.07;3.00;;;4.40;99.90;;;5.18;100.00;98859.00;5096289;28;20277;-64
2021/12/05 08:17:13;;;;;;;5.03;2.77;;;4.40;99.90;;;5.17;100.00;98845.88;5096441;28;20227;-66
2021/12/05 08:19:41;;;;;;;5.10;2.63;;;4.50;99.90;;;5.24;100.00;98849.31;5095920;28;20195;-64
2021/12/05 08:22:10;;;;;;;6.27;3.33;;;4.50;99.90;;;5.29;100.00;98854.84;5096102;28;20290;-63
2021/12/05 08:24:41;;;;;;;6.80;2.57;;;4.50;99.90;;;5.32;100.00;98859.72;5095773;28;20254;-64
2021/12/05 08:27:13;;;;;;;3.43;2.63;;;4.50;99.90;;;5.29;100.00;98866.34;5096125;28;20819;-64
2021/12/05 08:29:45;;;;;;;4.23;3.10;;;4.50;99.90;;;5.35;100.00;98867.28;5096023;28;20187;-63
2021/12/05 08:32:27;;;;;;;5.47;2.70;;;4.50;99.90;;;5.42;100.00;98871.56;5096229;28;20187;-63
2021/12/05 08:38:25;;;;;;;4.33;2.73;;;4.60;99.90;;;5.43;100.00;98883.84;5095987;28;20271;-63
2021/12/05 08:41:10;;;;;;;4.60;2.63;;;4.60;99.90;;;5.57;100.00;98881.91;5095142;28;20230;-64
2021/12/05 08:43:55;;;;;;;4.23;2.70;;;4.60;99.90;;;5.60;100.00;98876.94;5095516;28;20296;-64
2021/12/05 09:19:37;;;;;;;8.47;3.87;;;4.60;99.90;;;5.59;100.00;98923.38;5094896;28;20193;-63
2021/12/05 09:25:56;;;;;;;5.83;3.33;;;4.90;99.90;;;5.93;100.00;98951.47;5094688;28;20235;-66
2021/12/05 09:28:52;;;;;;;6.27;3.53;;;4.80;99.90;;;5.91;100.00;98950.88;5094988;28;20278;-63
2021/12/05 09:38:33;;;;;;;6.90;4.10;;;4.90;99.90;;;6.07;100.00;98955.69;5094902;28;20241;-64
2021/12/05 09:51:25;;;;;;;4.17;3.20;;;5.00;99.90;;;5.87;100.00;98966.53;5094483;28;20278;-64
2021/12/05 10:02:39;;;;;;;7.47;3.97;;;5.20;99.90;;;6.05;100.00;98973.78;5093955;28;20596;-65
2021/12/05 10:08:34;;;;;;;5.67;4.27;;;5.20;99.90;;;6.09;100.00;98981.13;5093824;28;20197;-63
2021/12/05 10:14:00;;;;;;;4.40;3.73;;;5.30;99.90;;;6.05;100.00;98981.81;5091452;28;20203;-65
2021/12/05 10:16:53;;;;;;;5.60;3.57;;;5.30;99.90;;;6.08;100.00;98973.34;5093795;28;20184;-65
2021/12/05 10:34:33;;;;;;;5.17;3.13;;;5.50;99.90;;;6.34;100.00;98964.25;5030895;28;20187;-67
2021/12/05 10:37:11;;;;;;;6.43;3.40;;;5.50;99.90;;;6.25;100.00;98962.88;5063049;28;20206;-64
2021/12/05 10:39:40;;;;;;;4.33;3.20;;;5.40;99.90;;;6.19;100.00;98961.91;5072908;28;20224;-64
2021/12/05 10:42:36;;;;;;;5.03;3.23;;;5.40;99.90;;;6.27;100.00;98966.16;5072546;28;20815;-64
2021/12/05 10:45:06;;;;;;;4.03;3.17;;;5.40;99.90;;;6.36;100.00;98967.53;5073010;28;20244;-64
2021/12/05 10:47:45;;;;;;;5.60;3.90;;;5.50;99.90;;;6.44;100.00;98964.53;5074227;28;20192;-64
2021/12/05 10:50:36;;;;;;;5.27;4.40;;;5.50;99.90;;;6.65;100.00;98959.56;5093088;28;20238;-66
2021/12/05 10:53:41;;;;;;;4.70;4.20;;;5.60;99.90;;;6.56;100.00;98960.88;5093022;28;20640;-64
2021/12/05 10:56:24;;;;;;;5.47;4.30;;;5.60;99.90;;;6.76;100.00;98958.81;5093296;28;20259;-63
2021/12/05 10:58:58;;;;;;;6.17;4.50;;;5.80;99.90;;;6.69;100.00;98954.56;5093009;28;20536;-63
2021/12/05 11:01:39;;;;;;;6.43;4.60;;;5.70;99.90;;;6.77;100.00;98951.59;5093093;28;20236;-65
2021/12/05 11:04:15;;;;;;;5.87;4.03;;;5.70;99.90;;;6.75;100.00;98957.16;5093150;28;20214;-66
2021/12/05 11:06:50;;;;;;;5.90;3.63;;;5.70;99.90;;;6.75;100.00;98956.38;5093164;28;20252;-65
2021/12/05 11:09:24;;;;;;;7.53;3.60;;;5.70;99.90;;;6.67;100.00;98946.78;5092628;28;20218;-66
2021/12/05 11:11:57;;;;;;;5.03;3.90;;;5.70;99.90;;;6.62;100.00;98945.81;5092616;28;20220;-65
2021/12/05 11:14:29;;;;;;;4.57;3.90;;;5.80;99.90;;;6.67;100.00;98949.44;5092791;28;20655;-66
2021/12/05 11:17:08;;;;;;;7.73;3.97;;;5.70;99.90;;;6.85;100.00;98945.94;5093014;28;20204;-66
2021/12/05 11:19:43;;;;;;;6.93;3.63;;;5.80;99.90;;;6.78;100.00;98948.69;5093012;28;20180;-65
2021/12/05 11:22:18;;;;;;;5.17;3.50;;;5.80;99.90;;;6.97;100.00;98947.63;5092950;28;20241;-65
2021/12/05 11:24:53;;;;;;;7.57;4.37;;;5.90;99.90;;;6.99;100.00;98955.41;5092744;28;20211;-65
2021/12/05 11:27:29;;;;;;;5.47;3.43;;;6.00;99.90;;;7.13;100.00;98964.91;5092675;28;20176;-64
2021/12/05 11:30:13;;;;;;;5.37;3.77;;;6.10;99.90;;;7.20;100.00;98950.38;5092460;28;20275;-65
2021/12/05 11:32:50;;;;;;;8.30;3.83;;;6.20;99.90;;;7.09;100.00;98956.53;5091877;28;20302;-64
2021/12/05 11:35:37;;;;;;;5.20;3.57;;;6.10;99.90;;;7.21;100.00;98953.88;5092695;28;20180;-64
2021/12/05 11:38:16;;;;;;;5.87;2.97;;;6.20;99.90;;;7.31;100.00;98957.66;5092435;28;20180;-64
2021/12/05 11:40:54;;;;;;;7.67;3.27;;;6.20;99.90;;;7.36;100.00;98960.47;5092138;28;20473;-67
2021/12/05 11:43:27;;;;;;;6.50;3.77;;;6.30;99.90;;;7.14;100.00;98963.88;5092300;28;20605;-65
2021/12/05 11:46:04;;;;;;;7.20;3.87;;;6.20;99.90;;;7.10;100.00;98963.50;5092739;28;20204;-65
2021/12/05 11:48:36;;;;;;;5.93;3.63;;;6.20;99.90;;;7.09;100.00;98963.72;5091969;28;20563;-64
2021/12/05 11:51:29;;;;;;;6.23;3.03;;;6.20;99.90;;;7.07;100.00;98969.31;5092324;28;20226;-66
2021/12/05 11:54:01;;;;;;;4.07;3.20;;;6.20;99.90;;;7.04;100.00;98972.44;5092346;28;20598;-63
2021/12/05 11:56:47;;;;;;;6.27;3.90;;;6.20;99.90;;;7.25;100.00;98971.97;5092160;28;20640;-65
2021/12/05 11:59:20;;;;;;;5.60;3.30;;;6.30;99.90;;;7.31;100.00;98978.25;5092488;28;20266;-64
2021/12/05 12:02:02;;;;;;;5.97;3.40;;;6.30;99.90;;;7.41;100.00;98968.63;5092195;28;20684;-64
2021/12/05 12:04:45;;;;;;;7.67;3.60;;;6.40;99.90;;;7.50;100.00;98968.28;5092234;28;20191;-64
2021/12/05 12:07:23;;;;;;;5.90;3.60;;;6.50;99.90;;;7.46;100.00;98975.97;5092213;28;20207;-64
2021/12/05 12:09:57;;;;;;;7.37;3.40;;;6.50;99.90;;;7.68;100.00;98973.59;5092228;28;20196;-65
2021/12/05 12:12:26;;;;;;;7.80;3.20;;;6.60;99.90;;;7.52;100.00;98985.78;5092341;28;20215;-65
2021/12/05 12:14:55;;;;;;;6.13;3.43;;;6.60;99.90;;;7.52;100.00;98971.56;5092737;28;20544;-64
2021/12/05 12:17:24;;;;;;;7.43;3.47;;;6.60;99.90;;;7.53;100.00;98970.50;5092164;28;20247;-63
2021/12/05 12:19:55;;;;;;;8.70;3.27;;;6.60;99.90;;;7.44;100.00;98968.16;5092189;28;20196;-63
2021/12/05 12:22:28;;;;;;;7.97;3.40;;;6.60;99.90;;;7.37;100.00;98967.44;5092167;28;20181;-64
2021/12/05 12:25:02;;;;;;;4.20;2.70;;;6.60;99.90;;;7.28;100.00;98971.50;5091795;28;20180;-64
2021/12/05 12:27:30;;;;;;;5.77;2.87;;;6.50;99.90;;;7.36;100.00;98973.03;5091890;28;20736;-65
2021/12/05 12:30:02;;;;;;;6.50;2.97;;;6.50;99.90;;;7.16;100.00;98978.69;5081271;28;20230;-63
2021/12/05 12:32:35;;;;;;;7.17;3.10;;;6.40;99.90;;;7.03;100.00;98975.34;5071549;28;20692;-65
2021/12/05 12:35:11;;;;;;;6.50;2.80;;;6.40;99.90;;;6.93;100.00;98978.56;5071806;28;20219;-63
2021/12/05 12:38:02;;;;;;;5.10;3.20;;;6.30;99.90;;;6.98;100.00;98985.91;5071706;28;20216;-63
2021/12/05 12:40:40;;;;;;;8.97;3.20;;;6.30;99.90;;;7.17;100.00;98991.00;5071359;28;20294;-65
2021/12/05 12:43:32;;;;;;;5.27;3.33;;;6.30;99.90;;;7.36;100.00;98989.09;5071755;28;20203;-64
2021/12/05 12:46:18;;;;;;;6.03;3.57;;;6.30;99.90;;;7.49;100.00;98980.06;5071300;28;20229;-63
2021/12/05 12:48:47;;;;;;;5.03;3.00;;;6.50;99.90;;;7.61;100.00;98980.91;5084482;28;20689;-63
2021/12/05 12:51:35;;;;;;;6.90;2.97;;;6.50;99.90;;;7.82;100.00;98978.50;5095396;28;20291;-63
2021/12/05 12:54:14;;;;;;;4.33;2.77;;;6.70;99.90;;;7.61;100.00;98978.25;5095500;28;20216;-65
2021/12/05 12:56:59;;;;;;;5.33;2.73;;;6.60;99.90;;;7.43;100.00;98987.97;5095474;28;20241;-64
2021/12/05 12:59:31;;;;;;;6.00;3.20;;;6.60;99.90;;;7.33;100.00;98995.75;5095367;28;20201;-63
2021/12/05 13:05:16;;;;;;;7.07;4.07;;;6.30;99.90;;;7.01;100.00;98999.69;5095221;28;20229;-65
2021/12/05 13:10:40;;;;;;;5.40;2.93;;;6.20;99.90;;;6.75;100.00;99009.88;5095140;28;20187;-63
2021/12/05 13:13:17;;;;;;;9.57;3.43;;;6.10;99.90;;;6.68;100.00;98999.22;5095189;28;20627;-63
2021/12/05 13:15:53;;;;;;;5.90;3.20;;;6.00;99.90;;;6.41;100.00;99013.13;5095120;28;20620;-64
2021/12/05 13:18:29;;;;;;;4.63;3.40;;;5.80;99.90;;;6.27;100.00;99012.44;5095208;28;20188;-64
2021/12/05 13:21:07;;;;;;;7.47;4.50;;;5.70;99.90;;;6.26;100.00;99018.81;5094794;28;20186;-65
2021/12/05 13:23:44;;;;;;;5.10;3.30;;;5.60;99.90;;;6.07;100.00;99020.63;5094877;28;20186;-64
2021/12/05 13:26:40;;;;;;;5.07;3.40;;;5.50;99.90;;;5.93;100.00;99028.97;5084075;28;20294;-64
2021/12/05 13:29:16;;;;;;;5.03;3.30;;;5.50;99.90;;;5.86;100.00;99028.22;5064822;28;20214;-65
2021/12/05 13:32:04;;;;;;;7.40;4.03;;;5.40;99.90;;;5.88;100.00;99035.00;5074766;28;20279;-65
2021/12/05 13:34:48;;;;;;;8.17;3.87;;;5.30;99.90;;;5.74;100.00;99035.25;5074520;28;20185;-64
2021/12/05 13:37:47;;;;;;;7.97;4.50;;;5.20;99.90;;;5.73;100.00;99049.66;5074654;28;20184;-64
2021/12/05 13:40:22;;;;;;;6.47;4.50;;;5.20;99.90;;;5.69;100.00;99056.47;5073793;28;20212;-64
2021/12/05 13:42:55;;;;;;;9.57;6.70;;;5.10;99.90;;;5.76;100.00;99057.22;5074327;28;20234;-64
2021/12/05 13:45:42;;;;;;;7.73;5.60;;;5.20;99.90;;;5.74;100.00;99054.78;5075099;28;20283;-65
2021/12/05 13:48:21;;;;;;;6.50;5.63;;;5.10;99.90;;;5.71;100.00;99052.53;5080741;28;20298;-64
2021/12/05 13:50:56;;;;;;;9.27;5.17;;;5.10;99.90;;;5.74;100.00;99057.47;5094686;28;20242;-64
2021/12/05 13:53:46;;;;;;;6.80;4.73;;;5.20;99.90;;;5.73;100.00;99060.34;5094476;28;20256;-64
2021/12/05 13:56:25;;;;;;;8.20;4.70;;;5.10;99.90;;;5.79;100.00;99057.63;5093870;28;20275;-63
2021/12/05 13:59:03;;;;;;;7.87;5.03;;;5.20;99.90;;;5.87;100.00;99064.56;5094181;28;20188;-64
2021/12/05 14:01:34;;;;;;;5.57;4.60;;;5.20;99.90;;;5.97;100.00;99067.63;5093989;28;20286;-64
2021/12/05 14:04:24;;;;;;;7.43;4.23;;;5.30;99.90;;;6.03;100.00;99064.88;5094035;28;20701;-64
2021/12/05 14:06:57;;;;;;;8.53;5.00;;;5.30;99.90;;;6.15;100.00;99062.31;5093649;28;20262;-65
2021/12/05 14:09:39;;;;;;;7.03;4.70;;;5.40;99.90;;;6.13;100.00;99054.53;5093755;28;20528;-63
2021/12/05 14:12:14;;;;;;;8.60;4.57;;;5.40;99.90;;;6.11;100.00;99063.78;5093741;28;20241;-64
2021/12/05 14:14:47;;;;;;;8.63;4.93;;;5.40;99.90;;;6.17;100.00;99066.41;5094142;28;20222;-65
2021/12/05 14:17:18;;;;;;;9.30;4.97;;;5.50;99.90;;;6.14;100.00;99066.00;5093584;28;20724;-64
2021/12/05 14:19:50;;;;;;;9.17;5.07;;;5.50;99.90;;;6.14;100.00;99055.31;5093692;28;20231;-64
2021/12/05 14:22:23;;;;;;;6.20;5.10;;;5.50;99.90;;;6.11;100.00;99061.09;5093190;28;20295;-64
2021/12/05 14:24:54;;;;;;;5.83;4.00;;;5.50;99.90;;;6.08;100.00;99078.41;5093772;28;20271;-64
2021/12/05 14:27:26;;;;;;;9.10;4.20;;;5.40;99.90;;;6.05;100.00;99083.38;5093110;28;20211;-65
2021/12/05 14:29:57;;;;;;;6.97;3.70;;;5.40;99.90;;;6.01;100.00;99071.47;5093612;28;20636;-64
2021/12/05 14:32:28;;;;;;;8.77;4.53;;;5.40;99.90;;;5.99;100.00;99084.22;5093592;28;20188;-65
2021/12/05 14:35:02;;;;;;;5.73;3.73;;;5.40;99.90;;;5.93;100.00;99096.63;5093560;28;20636;-65
2021/12/05 14:37:33;;;;;;;8.57;3.93;;;5.30;99.90;;;5.90;100.00;99097.03;5093263;28;20214;-65
2021/12/05 14:40:05;;;;;;;5.60;4.13;;;5.30;99.90;;;5.83;100.00;99100.78;5093296;28;20274;-64
2021/12/05 14:42:37;;;;;;;6.07;4.17;;;5.20;99.90;;;5.77;100.00;99104.28;5093178;28;20659;-64
2021/12/05 14:45:12;;;;;;;9.47;5.10;;;5.20;99.90;;;5.76;100.00;99111.50;5094001;28;20234;-65
2021/12/05 14:47:42;;;;;;;11.83;6.93;;;5.20;99.90;;;5.77;100.00;99113.13;5093077;28;20637;-64
2021/12/05 14:50:15;;;;;;;9.13;6.57;;;5.10;99.90;;;5.73;100.00;99117.25;5093276;28;20655;-65
2021/12/05 14:52:47;;;;;;;12.10;5.90;;;5.10;99.90;;;5.66;100.00;99126.34;5092955;28;20275;-64
2021/12/05 14:55:20;;;;;;;6.10;5.10;;;5.00;99.90;;;5.58;100.00;99131.94;5093352;28;20191;-64
2021/12/05 14:57:53;;;;;;;10.73;5.63;;;5.00;99.90;;;5.52;100.00;99132.78;5092896;28;20187;-64
2021/12/05 15:00:28;;;;;;;6.60;5.90;;;4.90;99.90;;;5.50;100.00;99146.34;5092975;28;20621;-64
2021/12/05 15:03:03;;;;;;;7.90;6.13;;;4.90;99.90;;;5.57;100.00;99146.31;5092800;28;20931;-64